sensor_id;sensor_type;location;lat;lon;timestamp;P1;durP1;ratioP1;P2;durP2;ratioP2
73951;SDS011;62304;47.662;18.324;2022-10-14T00:00:33;31.48;;;15.15;;
73951;SDS011;62304;47.662;18.324;2022-10-14T00:03:36;27.92;;;13.43;;
73951;SDS011;62304;47.662;18.324;2022-10-14T00:06:39;26.25;;;12.82;;
73951;SDS011;62304;47.662;18.324;2022-10-14T00:09:42;26.63;;;12.63;;
73951;SDS011;62304;47.662;18.324;2022-10-14T00:12:46;26.25;;;13.00;;
73951;SDS011;62304;47.662;18.324;2022-10-14T00:15:49;25.17;;;12.85;;
73951;SDS011;62304;47.662;18.324;2022-10-14T00:18:51;25.08;;;13.18;;
73951;SDS011;62304;47.662;18.324;2022-10-14T00:21:54;26.58;;;13.48;;
73951;SDS011;62304;47.662;18.324;2022-10-14T00:24:57;25.60;;;13.10;;
73951;SDS011;62304;47.662;18.324;2022-10-14T00:28:03;26.45;;;13.15;;
73951;SDS011;62304;47.662;18.324;2022-10-14T00:31:06;27.42;;;13.02;;
73951;SDS011;62304;47.662;18.324;2022-10-14T00:34:09;27.50;;;14.10;;
73951;SDS011;62304;47.662;18.324;2022-10-14T00:37:17;23.05;;;12.68;;
73951;SDS011;62304;47.662;18.324;2022-10-14T00:40:21;25.30;;;12.47;;
73951;SDS011;62304;47.662;18.324;2022-10-14T00:43:24;26.17;;;12.23;;
73951;SDS011;62304;47.662;18.324;2022-10-14T00:46:29;24.48;;;11.75;;
73951;SDS011;62304;47.662;18.324;2022-10-14T00:49:36;21.15;;;11.40;;
73951;SDS011;62304;47.662;18.324;2022-10-14T00:52:42;23.75;;;11.85;;
73951;SDS011;62304;47.662;18.324;2022-10-14T00:55:47;23.13;;;11.43;;
73951;SDS011;62304;47.662;18.324;2022-10-14T00:58:50;21.27;;;11.32;;
73951;SDS011;62304;47.662;18.324;2022-10-14T01:01:54;22.50;;;11.15;;
73951;SDS011;62304;47.662;18.324;2022-10-14T01:04:58;21.75;;;11.68;;
73951;SDS011;62304;47.662;18.324;2022-10-14T01:08:09;22.62;;;10.75;;
73951;SDS011;62304;47.662;18.324;2022-10-14T01:21:55;23.55;;;11.68;;
73951;SDS011;62304;47.662;18.324;2022-10-14T01:25:26;21.65;;;11.35;;
73951;SDS011;62304;47.662;18.324;2022-10-14T01:32:04;20.62;;;11.45;;
73951;SDS011;62304;47.662;18.324;2022-10-14T01:35:18;21.50;;;10.57;;
73951;SDS011;62304;47.662;18.324;2022-10-14T01:41:38;20.70;;;10.55;;
73951;SDS011;62304;47.662;18.324;2022-10-14T01:44:46;20.30;;;10.27;;
73951;SDS011;62304;47.662;18.324;2022-10-14T01:47:53;18.67;;;10.05;;
73951;SDS011;62304;47.662;18.324;2022-10-14T01:51:03;21.70;;;11.07;;
73951;SDS011;62304;47.662;18.324;2022-10-14T01:54:11;21.83;;;10.20;;
73951;SDS011;62304;47.662;18.324;2022-10-14T01:57:26;20.35;;;10.70;;
73951;SDS011;62304;47.662;18.324;2022-10-14T02:00:32;20.43;;;9.77;;
73951;SDS011;62304;47.662;18.324;2022-10-14T02:03:43;19.73;;;10.18;;
73951;SDS011;62304;47.662;18.324;2022-10-14T02:06:49;18.92;;;10.13;;
73951;SDS011;62304;47.662;18.324;2022-10-14T02:17:10;23.80;;;11.13;;
73951;SDS011;62304;47.662;18.324;2022-10-14T02:20:33;20.12;;;9.07;;
73951;SDS011;62304;47.662;18.324;2022-10-14T02:23:47;18.33;;;10.05;;
73951;SDS011;62304;47.662;18.324;2022-10-14T02:26:59;22.02;;;10.80;;
73951;SDS011;62304;47.662;18.324;2022-10-14T02:30:06;26.40;;;11.37;;
73951;SDS011;62304;47.662;18.324;2022-10-14T02:33:10;26.80;;;11.40;;
73951;SDS011;62304;47.662;18.324;2022-10-14T02:36:15;23.38;;;10.95;;
73951;SDS011;62304;47.662;18.324;2022-10-14T02:39:23;23.02;;;11.68;;
73951;SDS011;62304;47.662;18.324;2022-10-14T02:42:32;19.92;;;10.10;;
73951;SDS011;62304;47.662;18.324;2022-10-14T02:45:38;23.45;;;10.50;;
73951;SDS011;62304;47.662;18.324;2022-10-14T02:48:43;21.90;;;10.20;;
73951;SDS011;62304;47.662;18.324;2022-10-14T02:51:45;21.50;;;11.02;;
73951;SDS011;62304;47.662;18.324;2022-10-14T02:54:48;19.58;;;11.00;;
73951;SDS011;62304;47.662;18.324;2022-10-14T02:57:51;31.12;;;13.10;;
73951;SDS011;62304;47.662;18.324;2022-10-14T03:00:54;28.42;;;11.52;;
73951;SDS011;62304;47.662;18.324;2022-10-14T03:03:59;26.07;;;11.43;;
73951;SDS011;62304;47.662;18.324;2022-10-14T03:07:02;24.80;;;12.43;;
73951;SDS011;62304;47.662;18.324;2022-10-14T03:10:06;25.33;;;11.95;;
73951;SDS011;62304;47.662;18.324;2022-10-14T03:13:10;19.17;;;10.27;;
73951;SDS011;62304;47.662;18.324;2022-10-14T03:16:13;22.20;;;10.32;;
73951;SDS011;62304;47.662;18.324;2022-10-14T03:19:18;23.27;;;10.83;;
73951;SDS011;62304;47.662;18.324;2022-10-14T03:22:21;18.70;;;9.43;;
73951;SDS011;62304;47.662;18.324;2022-10-14T03:25:24;18.60;;;8.55;;
73951;SDS011;62304;47.662;18.324;2022-10-14T03:28:29;19.02;;;8.75;;
73951;SDS011;62304;47.662;18.324;2022-10-14T03:31:33;17.15;;;9.07;;
73951;SDS011;62304;47.662;18.324;2022-10-14T03:34:36;17.87;;;8.73;;
73951;SDS011;62304;47.662;18.324;2022-10-14T03:37:39;20.48;;;8.68;;
73951;SDS011;62304;47.662;18.324;2022-10-14T03:40:43;23.45;;;10.15;;
73951;SDS011;62304;47.662;18.324;2022-10-14T03:43:46;25.12;;;10.68;;
73951;SDS011;62304;47.662;18.324;2022-10-14T03:46:50;18.30;;;9.63;;
73951;SDS011;62304;47.662;18.324;2022-10-14T03:49:57;33.47;;;14.13;;
73951;SDS011;62304;47.662;18.324;2022-10-14T03:53:00;29.15;;;12.30;;
73951;SDS011;62304;47.662;18.324;2022-10-14T03:56:04;21.75;;;9.88;;
73951;SDS011;62304;47.662;18.324;2022-10-14T03:59:09;25.55;;;12.25;;
73951;SDS011;62304;47.662;18.324;2022-10-14T04:02:18;27.50;;;12.23;;
73951;SDS011;62304;47.662;18.324;2022-10-14T04:05:24;25.10;;;11.87;;
73951;SDS011;62304;47.662;18.324;2022-10-14T04:08:27;23.12;;;12.20;;
73951;SDS011;62304;47.662;18.324;2022-10-14T04:11:30;25.05;;;13.30;;
73951;SDS011;62304;47.662;18.324;2022-10-14T04:14:34;24.12;;;12.45;;
73951;SDS011;62304;47.662;18.324;2022-10-14T04:17:37;24.37;;;11.93;;
73951;SDS011;62304;47.662;18.324;2022-10-14T04:20:41;18.27;;;9.50;;
73951;SDS011;62304;47.662;18.324;2022-10-14T04:23:44;27.02;;;10.98;;
73951;SDS011;62304;47.662;18.324;2022-10-14T04:26:49;24.92;;;11.65;;
73951;SDS011;62304;47.662;18.324;2022-10-14T04:29:54;21.75;;;10.68;;
73951;SDS011;62304;47.662;18.324;2022-10-14T04:32:57;25.98;;;10.90;;
73951;SDS011;62304;47.662;18.324;2022-10-14T04:36:01;19.17;;;10.30;;
73951;SDS011;62304;47.662;18.324;2022-10-14T04:39:07;22.48;;;9.77;;
73951;SDS011;62304;47.662;18.324;2022-10-14T04:42:11;23.83;;;12.90;;
73951;SDS011;62304;47.662;18.324;2022-10-14T04:45:15;22.87;;;11.35;;
73951;SDS011;62304;47.662;18.324;2022-10-14T04:48:18;23.05;;;10.18;;
73951;SDS011;62304;47.662;18.324;2022-10-14T04:51:21;28.00;;;11.27;;
73951;SDS011;62304;47.662;18.324;2022-10-14T04:54:25;20.60;;;10.85;;
73951;SDS011;62304;47.662;18.324;2022-10-14T04:57:29;46.80;;;23.20;;
73951;SDS011;62304;47.662;18.324;2022-10-14T05:00:32;45.53;;;21.35;;
73951;SDS011;62304;47.662;18.324;2022-10-14T05:03:35;25.58;;;13.30;;
73951;SDS011;62304;47.662;18.324;2022-10-14T05:06:38;23.70;;;10.80;;
73951;SDS011;62304;47.662;18.324;2022-10-14T05:09:42;20.90;;;10.35;;
73951;SDS011;62304;47.662;18.324;2022-10-14T05:12:51;20.35;;;10.82;;
73951;SDS011;62304;47.662;18.324;2022-10-14T05:15:55;21.10;;;10.93;;
73951;SDS011;62304;47.662;18.324;2022-10-14T05:18:58;32.55;;;14.65;;
73951;SDS011;62304;47.662;18.324;2022-10-14T05:22:03;136.00;;;44.83;;
73951;SDS011;62304;47.662;18.324;2022-10-14T05:25:06;62.53;;;23.58;;
73951;SDS011;62304;47.662;18.324;2022-10-14T05:28:10;31.05;;;15.00;;
73951;SDS011;62304;47.662;18.324;2022-10-14T05:31:14;31.58;;;13.85;;
73951;SDS011;62304;47.662;18.324;2022-10-14T05:34:17;23.65;;;12.45;;
73951;SDS011;62304;47.662;18.324;2022-10-14T05:37:20;21.80;;;11.93;;
73951;SDS011;62304;47.662;18.324;2022-10-14T05:40:23;32.28;;;14.30;;
73951;SDS011;62304;47.662;18.324;2022-10-14T05:43:27;32.80;;;17.25;;
73951;SDS011;62304;47.662;18.324;2022-10-14T05:46:34;34.85;;;14.95;;
73951;SDS011;62304;47.662;18.324;2022-10-14T05:49:38;29.75;;;15.15;;
73951;SDS011;62304;47.662;18.324;2022-10-14T05:52:40;25.67;;;13.70;;
73951;SDS011;62304;47.662;18.324;2022-10-14T05:55:44;25.15;;;13.95;;
73951;SDS011;62304;47.662;18.324;2022-10-14T05:58:48;30.30;;;14.23;;
73951;SDS011;62304;47.662;18.324;2022-10-14T06:01:51;29.95;;;14.93;;
73951;SDS011;62304;47.662;18.324;2022-10-14T06:04:54;31.17;;;15.55;;
73951;SDS011;62304;47.662;18.324;2022-10-14T06:07:57;33.00;;;14.57;;
73951;SDS011;62304;47.662;18.324;2022-10-14T06:11:01;22.02;;;11.80;;
73951;SDS011;62304;47.662;18.324;2022-10-14T06:14:06;32.10;;;13.32;;
73951;SDS011;62304;47.662;18.324;2022-10-14T06:17:10;29.75;;;12.65;;
73951;SDS011;62304;47.662;18.324;2022-10-14T06:20:12;28.80;;;11.68;;
73951;SDS011;62304;47.662;18.324;2022-10-14T06:23:16;34.87;;;15.33;;
73951;SDS011;62304;47.662;18.324;2022-10-14T06:26:18;27.80;;;12.32;;
73951;SDS011;62304;47.662;18.324;2022-10-14T06:29:22;26.80;;;14.20;;
73951;SDS011;62304;47.662;18.324;2022-10-14T06:32:27;30.90;;;14.52;;
73951;SDS011;62304;47.662;18.324;2022-10-14T06:35:31;31.15;;;14.70;;
73951;SDS011;62304;47.662;18.324;2022-10-14T06:38:35;28.13;;;15.20;;
73951;SDS011;62304;47.662;18.324;2022-10-14T06:41:38;33.08;;;15.70;;
73951;SDS011;62304;47.662;18.324;2022-10-14T06:44:46;31.62;;;15.25;;
73951;SDS011;62304;47.662;18.324;2022-10-14T06:47:49;30.33;;;14.05;;
73951;SDS011;62304;47.662;18.324;2022-10-14T06:50:54;30.95;;;14.85;;
73951;SDS011;62304;47.662;18.324;2022-10-14T06:53:59;26.33;;;13.47;;
73951;SDS011;62304;47.662;18.324;2022-10-14T06:57:02;25.52;;;13.93;;
73951;SDS011;62304;47.662;18.324;2022-10-14T07:00:06;55.05;;;27.33;;
73951;SDS011;62304;47.662;18.324;2022-10-14T07:03:11;34.75;;;18.67;;
73951;SDS011;62304;47.662;18.324;2022-10-14T07:06:13;37.08;;;16.52;;
73951;SDS011;62304;47.662;18.324;2022-10-14T07:09:16;30.33;;;13.17;;
73951;SDS011;62304;47.662;18.324;2022-10-14T07:12:19;26.37;;;12.70;;
73951;SDS011;62304;47.662;18.324;2022-10-14T07:15:22;27.83;;;13.57;;
73951;SDS011;62304;47.662;18.324;2022-10-14T07:18:25;31.40;;;14.23;;
73951;SDS011;62304;47.662;18.324;2022-10-14T07:21:28;25.30;;;12.10;;
73951;SDS011;62304;47.662;18.324;2022-10-14T07:24:31;25.00;;;11.40;;
73951;SDS011;62304;47.662;18.324;2022-10-14T07:27:34;23.77;;;10.75;;
73951;SDS011;62304;47.662;18.324;2022-10-14T07:30:37;27.48;;;10.38;;
73951;SDS011;62304;47.662;18.324;2022-10-14T07:33:40;21.33;;;8.93;;
73951;SDS011;62304;47.662;18.324;2022-10-14T07:36:43;19.20;;;9.95;;
73951;SDS011;62304;47.662;18.324;2022-10-14T07:39:45;21.87;;;10.70;;
73951;SDS011;62304;47.662;18.324;2022-10-14T07:42:48;20.42;;;11.50;;
73951;SDS011;62304;47.662;18.324;2022-10-14T07:45:51;25.33;;;12.85;;
73951;SDS011;62304;47.662;18.324;2022-10-14T07:49:13;30.50;;;16.73;;
73951;SDS011;62304;47.662;18.324;2022-10-14T07:52:18;27.25;;;15.93;;
73951;SDS011;62304;47.662;18.324;2022-10-14T07:55:21;29.20;;;15.00;;
73951;SDS011;62304;47.662;18.324;2022-10-14T07:58:25;31.37;;;16.10;;
73951;SDS011;62304;47.662;18.324;2022-10-14T08:01:31;30.77;;;15.00;;
73951;SDS011;62304;47.662;18.324;2022-10-14T08:04:35;29.63;;;14.60;;
73951;SDS011;62304;47.662;18.324;2022-10-14T08:07:38;33.80;;;16.90;;
73951;SDS011;62304;47.662;18.324;2022-10-14T08:10:40;31.70;;;13.50;;
73951;SDS011;62304;47.662;18.324;2022-10-14T08:13:43;29.73;;;13.65;;
73951;SDS011;62304;47.662;18.324;2022-10-14T08:16:47;21.70;;;10.60;;
73951;SDS011;62304;47.662;18.324;2022-10-14T08:19:50;19.83;;;9.60;;
73951;SDS011;62304;47.662;18.324;2022-10-14T08:22:53;21.52;;;11.65;;
73951;SDS011;62304;47.662;18.324;2022-10-14T08:25:57;19.97;;;10.43;;
73951;SDS011;62304;47.662;18.324;2022-10-14T08:29:01;26.73;;;9.68;;
73951;SDS011;62304;47.662;18.324;2022-10-14T08:32:06;19.10;;;9.50;;
73951;SDS011;62304;47.662;18.324;2022-10-14T08:35:09;22.08;;;9.35;;
73951;SDS011;62304;47.662;18.324;2022-10-14T08:38:12;21.58;;;10.00;;
73951;SDS011;62304;47.662;18.324;2022-10-14T08:41:32;15.67;;;7.73;;
73951;SDS011;62304;47.662;18.324;2022-10-14T08:44:48;12.35;;;7.25;;
73951;SDS011;62304;47.662;18.324;2022-10-14T08:48:01;13.30;;;7.60;;
73951;SDS011;62304;47.662;18.324;2022-10-14T08:51:12;13.65;;;7.47;;
73951;SDS011;62304;47.662;18.324;2022-10-14T08:54:31;14.52;;;7.28;;
73951;SDS011;62304;47.662;18.324;2022-10-14T08:57:37;14.10;;;7.13;;
73951;SDS011;62304;47.662;18.324;2022-10-14T09:00:50;13.07;;;6.65;;
73951;SDS011;62304;47.662;18.324;2022-10-14T09:03:58;14.30;;;7.00;;
73951;SDS011;62304;47.662;18.324;2022-10-14T09:07:04;13.10;;;7.43;;
73951;SDS011;62304;47.662;18.324;2022-10-14T09:10:10;13.13;;;7.05;;
73951;SDS011;62304;47.662;18.324;2022-10-14T09:13:18;11.93;;;6.37;;
73951;SDS011;62304;47.662;18.324;2022-10-14T09:16:37;15.25;;;7.32;;
73951;SDS011;62304;47.662;18.324;2022-10-14T09:19:53;12.80;;;6.07;;
73951;SDS011;62304;47.662;18.324;2022-10-14T09:23:15;16.40;;;7.78;;
73951;SDS011;62304;47.662;18.324;2022-10-14T09:26:20;14.75;;;7.82;;
73951;SDS011;62304;47.662;18.324;2022-10-14T09:35:45;16.42;;;7.68;;
73951;SDS011;62304;47.662;18.324;2022-10-14T09:38:50;14.43;;;6.85;;
73951;SDS011;62304;47.662;18.324;2022-10-14T09:41:55;12.93;;;7.82;;
73951;SDS011;62304;47.662;18.324;2022-10-14T09:45:05;13.70;;;8.13;;
73951;SDS011;62304;47.662;18.324;2022-10-14T09:48:11;15.30;;;7.60;;
73951;SDS011;62304;47.662;18.324;2022-10-14T09:51:24;15.27;;;8.00;;
73951;SDS011;62304;47.662;18.324;2022-10-14T09:54:32;15.00;;;7.68;;
73951;SDS011;62304;47.662;18.324;2022-10-14T09:57:36;15.63;;;8.03;;
73951;SDS011;62304;47.662;18.324;2022-10-14T10:00:38;13.38;;;6.28;;
73951;SDS011;62304;47.662;18.324;2022-10-14T10:03:42;13.20;;;7.22;;
73951;SDS011;62304;47.662;18.324;2022-10-14T10:06:52;14.30;;;7.22;;
73951;SDS011;62304;47.662;18.324;2022-10-14T10:09:57;17.73;;;8.05;;
73951;SDS011;62304;47.662;18.324;2022-10-14T10:13:01;14.00;;;7.43;;
73951;SDS011;62304;47.662;18.324;2022-10-14T10:16:05;14.50;;;8.05;;
73951;SDS011;62304;47.662;18.324;2022-10-14T10:19:26;14.85;;;6.62;;
73951;SDS011;62304;47.662;18.324;2022-10-14T10:22:32;13.73;;;7.70;;
73951;SDS011;62304;47.662;18.324;2022-10-14T10:25:38;14.00;;;7.65;;
73951;SDS011;62304;47.662;18.324;2022-10-14T10:28:44;16.80;;;7.23;;
73951;SDS011;62304;47.662;18.324;2022-10-14T10:35:18;12.57;;;6.43;;
73951;SDS011;62304;47.662;18.324;2022-10-14T10:38:33;15.82;;;9.50;;
73951;SDS011;62304;47.662;18.324;2022-10-14T10:58:40;13.30;;;8.38;;
73951;SDS011;62304;47.662;18.324;2022-10-14T11:02:51;16.30;;;8.40;;
73951;SDS011;62304;47.662;18.324;2022-10-14T11:08:59;17.55;;;9.50;;
73951;SDS011;62304;47.662;18.324;2022-10-14T11:12:33;16.30;;;10.20;;
73951;SDS011;62304;47.662;18.324;2022-10-14T11:16:02;19.70;;;10.13;;
73951;SDS011;62304;47.662;18.324;2022-10-14T11:27:04;21.48;;;11.35;;
73951;SDS011;62304;47.662;18.324;2022-10-14T11:30:03;21.12;;;10.85;;
73951;SDS011;62304;47.662;18.324;2022-10-14T11:33:21;20.80;;;11.30;;
73951;SDS011;62304;47.662;18.324;2022-10-14T11:36:31;19.07;;;11.47;;
73951;SDS011;62304;47.662;18.324;2022-10-14T11:39:53;20.50;;;11.75;;
73951;SDS011;62304;47.662;18.324;2022-10-14T11:46:21;19.42;;;10.82;;
73951;SDS011;62304;47.662;18.324;2022-10-14T11:49:31;26.95;;;12.10;;
73951;SDS011;62304;47.662;18.324;2022-10-14T11:52:45;17.07;;;10.80;;
73951;SDS011;62304;47.662;18.324;2022-10-14T11:55:59;21.85;;;11.70;;
73951;SDS011;62304;47.662;18.324;2022-10-14T12:08:55;18.67;;;10.47;;
73951;SDS011;62304;47.662;18.324;2022-10-14T12:12:00;18.62;;;11.43;;
73951;SDS011;62304;47.662;18.324;2022-10-14T12:15:12;16.23;;;11.12;;
73951;SDS011;62304;47.662;18.324;2022-10-14T12:18:20;18.20;;;11.05;;
73951;SDS011;62304;47.662;18.324;2022-10-14T12:24:53;18.00;;;11.00;;
73951;SDS011;62304;47.662;18.324;2022-10-14T12:27:58;18.70;;;10.68;;
73951;SDS011;62304;47.662;18.324;2022-10-14T12:31:21;17.77;;;11.10;;
73951;SDS011;62304;47.662;18.324;2022-10-14T12:34:34;18.73;;;11.48;;
73951;SDS011;62304;47.662;18.324;2022-10-14T12:37:46;21.58;;;11.68;;
73951;SDS011;62304;47.662;18.324;2022-10-14T12:40:51;18.80;;;11.07;;
73951;SDS011;62304;47.662;18.324;2022-10-14T12:43:58;20.48;;;11.55;;
73951;SDS011;62304;47.662;18.324;2022-10-14T12:47:03;22.83;;;11.48;;
73951;SDS011;62304;47.662;18.324;2022-10-14T12:53:26;22.02;;;11.15;;
73951;SDS011;62304;47.662;18.324;2022-10-14T12:56:33;20.87;;;10.37;;
73951;SDS011;62304;47.662;18.324;2022-10-14T12:59:39;16.98;;;10.23;;
73951;SDS011;62304;47.662;18.324;2022-10-14T13:02:43;22.02;;;11.38;;
73951;SDS011;62304;47.662;18.324;2022-10-14T13:05:47;19.92;;;10.40;;
73951;SDS011;62304;47.662;18.324;2022-10-14T13:18:52;16.52;;;10.35;;
73951;SDS011;62304;47.662;18.324;2022-10-14T13:22:49;22.65;;;11.25;;
73951;SDS011;62304;47.662;18.324;2022-10-14T13:25:35;28.48;;;13.18;;
73951;SDS011;62304;47.662;18.324;2022-10-14T13:28:43;16.27;;;9.47;;
73951;SDS011;62304;47.662;18.324;2022-10-14T13:38:19;16.50;;;9.90;;
73951;SDS011;62304;47.662;18.324;2022-10-14T13:41:27;19.27;;;10.52;;
73951;SDS011;62304;47.662;18.324;2022-10-14T13:44:32;25.60;;;11.30;;
73951;SDS011;62304;47.662;18.324;2022-10-14T13:47:36;18.50;;;10.38;;
73951;SDS011;62304;47.662;18.324;2022-10-14T13:50:43;20.67;;;10.65;;
73951;SDS011;62304;47.662;18.324;2022-10-14T13:53:53;15.32;;;10.05;;
73951;SDS011;62304;47.662;18.324;2022-10-14T14:00:30;19.90;;;10.73;;
73951;SDS011;62304;47.662;18.324;2022-10-14T14:03:44;18.23;;;10.13;;
73951;SDS011;62304;47.662;18.324;2022-10-14T14:06:52;21.62;;;10.35;;
73951;SDS011;62304;47.662;18.324;2022-10-14T14:10:17;17.37;;;10.15;;
73951;SDS011;62304;47.662;18.324;2022-10-14T14:13:26;18.02;;;10.23;;
73951;SDS011;62304;47.662;18.324;2022-10-14T14:16:33;21.47;;;11.33;;
73951;SDS011;62304;47.662;18.324;2022-10-14T14:19:44;19.87;;;11.00;;
73951;SDS011;62304;47.662;18.324;2022-10-14T14:22:50;25.10;;;11.40;;
73951;SDS011;62304;47.662;18.324;2022-10-14T14:25:54;21.12;;;10.68;;
73951;SDS011;62304;47.662;18.324;2022-10-14T14:29:18;19.42;;;10.70;;
73951;SDS011;62304;47.662;18.324;2022-10-14T14:32:29;17.73;;;10.57;;
73951;SDS011;62304;47.662;18.324;2022-10-14T14:35:34;18.90;;;10.32;;
73951;SDS011;62304;47.662;18.324;2022-10-14T14:38:44;18.02;;;9.48;;
73951;SDS011;62304;47.662;18.324;2022-10-14T14:41:59;20.52;;;10.18;;
73951;SDS011;62304;47.662;18.324;2022-10-14T14:45:05;18.62;;;9.88;;
73951;SDS011;62304;47.662;18.324;2022-10-14T14:48:30;17.20;;;9.93;;
73951;SDS011;62304;47.662;18.324;2022-10-14T14:51:36;17.75;;;9.63;;
73951;SDS011;62304;47.662;18.324;2022-10-14T14:54:44;16.73;;;9.55;;
73951;SDS011;62304;47.662;18.324;2022-10-14T14:57:53;23.23;;;10.93;;
73951;SDS011;62304;47.662;18.324;2022-10-14T15:00:59;23.02;;;10.50;;
73951;SDS011;62304;47.662;18.324;2022-10-14T15:04:06;20.77;;;10.23;;
73951;SDS011;62304;47.662;18.324;2022-10-14T15:07:25;20.83;;;10.48;;
73951;SDS011;62304;47.662;18.324;2022-10-14T15:10:28;24.15;;;10.77;;
73951;SDS011;62304;47.662;18.324;2022-10-14T15:16:46;19.52;;;10.60;;
73951;SDS011;62304;47.662;18.324;2022-10-14T15:19:56;24.63;;;10.93;;
73951;SDS011;62304;47.662;18.324;2022-10-14T15:23:00;24.60;;;12.60;;
73951;SDS011;62304;47.662;18.324;2022-10-14T15:26:18;17.85;;;10.15;;
73951;SDS011;62304;47.662;18.324;2022-10-14T15:29:25;21.58;;;10.65;;
73951;SDS011;62304;47.662;18.324;2022-10-14T15:32:28;23.85;;;12.95;;
73951;SDS011;62304;47.662;18.324;2022-10-14T15:35:31;19.40;;;11.10;;
73951;SDS011;62304;47.662;18.324;2022-10-14T15:38:38;24.83;;;11.57;;
73951;SDS011;62304;47.662;18.324;2022-10-14T15:41:41;20.77;;;11.40;;
73951;SDS011;62304;47.662;18.324;2022-10-14T15:44:46;21.33;;;10.20;;
73951;SDS011;62304;47.662;18.324;2022-10-14T15:47:54;18.85;;;10.02;;
73951;SDS011;62304;47.662;18.324;2022-10-14T15:51:03;50.33;;;25.83;;
73951;SDS011;62304;47.662;18.324;2022-10-14T15:54:10;56.60;;;28.30;;
73951;SDS011;62304;47.662;18.324;2022-10-14T15:57:16;45.45;;;25.33;;
73951;SDS011;62304;47.662;18.324;2022-10-14T16:00:22;46.67;;;27.13;;
73951;SDS011;62304;47.662;18.324;2022-10-14T16:03:28;65.55;;;37.40;;
73951;SDS011;62304;47.662;18.324;2022-10-14T16:06:44;56.53;;;31.53;;
73951;SDS011;62304;47.662;18.324;2022-10-14T16:09:48;43.65;;;24.17;;
73951;SDS011;62304;47.662;18.324;2022-10-14T16:12:52;66.53;;;36.13;;
73951;SDS011;62304;47.662;18.324;2022-10-14T16:15:58;71.97;;;35.42;;
73951;SDS011;62304;47.662;18.324;2022-10-14T16:19:02;64.55;;;34.30;;
73951;SDS011;62304;47.662;18.324;2022-10-14T16:22:06;67.33;;;32.17;;
73951;SDS011;62304;47.662;18.324;2022-10-14T16:25:17;55.20;;;28.48;;
73951;SDS011;62304;47.662;18.324;2022-10-14T16:28:33;58.08;;;28.02;;
73951;SDS011;62304;47.662;18.324;2022-10-14T16:31:38;48.03;;;26.87;;
73951;SDS011;62304;47.662;18.324;2022-10-14T16:34:41;49.47;;;24.37;;
73951;SDS011;62304;47.662;18.324;2022-10-14T16:37:44;52.17;;;24.90;;
73951;SDS011;62304;47.662;18.324;2022-10-14T16:40:57;38.72;;;18.45;;
73951;SDS011;62304;47.662;18.324;2022-10-14T16:44:02;34.80;;;18.98;;
73951;SDS011;62304;47.662;18.324;2022-10-14T16:47:07;51.75;;;21.87;;
73951;SDS011;62304;47.662;18.324;2022-10-14T16:50:17;46.05;;;24.35;;
73951;SDS011;62304;47.662;18.324;2022-10-14T16:53:20;46.73;;;23.27;;
73951;SDS011;62304;47.662;18.324;2022-10-14T16:56:41;53.05;;;25.62;;
73951;SDS011;62304;47.662;18.324;2022-10-14T16:59:54;50.45;;;26.23;;
73951;SDS011;62304;47.662;18.324;2022-10-14T17:02:57;57.62;;;29.70;;
73951;SDS011;62304;47.662;18.324;2022-10-14T17:06:01;57.15;;;30.77;;
73951;SDS011;62304;47.662;18.324;2022-10-14T17:09:03;64.00;;;31.53;;
73951;SDS011;62304;47.662;18.324;2022-10-14T17:12:07;63.87;;;31.37;;
73951;SDS011;62304;47.662;18.324;2022-10-14T17:15:15;56.65;;;27.67;;
73951;SDS011;62304;47.662;18.324;2022-10-14T17:18:19;67.03;;;33.65;;
73951;SDS011;62304;47.662;18.324;2022-10-14T17:21:27;65.97;;;31.67;;
73951;SDS011;62304;47.662;18.324;2022-10-14T17:24:31;60.77;;;31.17;;
73951;SDS011;62304;47.662;18.324;2022-10-14T17:27:35;63.70;;;32.95;;
73951;SDS011;62304;47.662;18.324;2022-10-14T17:30:38;70.05;;;35.67;;
73951;SDS011;62304;47.662;18.324;2022-10-14T17:33:40;69.37;;;34.33;;
73951;SDS011;62304;47.662;18.324;2022-10-14T17:36:44;93.43;;;43.28;;
73951;SDS011;62304;47.662;18.324;2022-10-14T17:39:47;132.73;;;67.03;;
73951;SDS011;62304;47.662;18.324;2022-10-14T17:42:52;82.03;;;41.50;;
73951;SDS011;62304;47.662;18.324;2022-10-14T17:46:02;74.37;;;36.35;;
73951;SDS011;62304;47.662;18.324;2022-10-14T17:49:13;71.78;;;32.78;;
73951;SDS011;62304;47.662;18.324;2022-10-14T17:52:18;65.85;;;32.22;;
73951;SDS011;62304;47.662;18.324;2022-10-14T17:55:23;65.70;;;33.50;;
73951;SDS011;62304;47.662;18.324;2022-10-14T17:58:27;74.82;;;34.75;;
73951;SDS011;62304;47.662;18.324;2022-10-14T18:01:30;81.28;;;37.03;;
73951;SDS011;62304;47.662;18.324;2022-10-14T18:04:54;63.78;;;31.90;;
73951;SDS011;62304;47.662;18.324;2022-10-14T18:07:56;58.42;;;30.83;;
73951;SDS011;62304;47.662;18.324;2022-10-14T18:11:02;59.77;;;29.13;;
73951;SDS011;62304;47.662;18.324;2022-10-14T18:14:12;82.00;;;40.65;;
73951;SDS011;62304;47.662;18.324;2022-10-14T18:17:19;99.45;;;50.55;;
73951;SDS011;62304;47.662;18.324;2022-10-14T18:20:23;103.97;;;50.60;;
73951;SDS011;62304;47.662;18.324;2022-10-14T18:23:27;102.35;;;47.15;;
73951;SDS011;62304;47.662;18.324;2022-10-14T18:26:32;97.87;;;46.07;;
73951;SDS011;62304;47.662;18.324;2022-10-14T18:29:37;84.13;;;39.28;;
73951;SDS011;62304;47.662;18.324;2022-10-14T18:32:40;83.37;;;38.17;;
73951;SDS011;62304;47.662;18.324;2022-10-14T18:35:43;77.10;;;36.22;;
73951;SDS011;62304;47.662;18.324;2022-10-14T18:38:50;77.87;;;35.65;;
73951;SDS011;62304;47.662;18.324;2022-10-14T18:41:56;72.27;;;33.07;;
73951;SDS011;62304;47.662;18.324;2022-10-14T18:44:59;90.85;;;37.55;;
73951;SDS011;62304;47.662;18.324;2022-10-14T18:48:02;152.48;;;73.53;;
73951;SDS011;62304;47.662;18.324;2022-10-14T18:51:05;103.82;;;47.30;;
73951;SDS011;62304;47.662;18.324;2022-10-14T18:54:11;110.63;;;53.17;;
73951;SDS011;62304;47.662;18.324;2022-10-14T18:57:19;129.67;;;63.03;;
73951;SDS011;62304;47.662;18.324;2022-10-14T19:00:23;125.87;;;59.05;;
73951;SDS011;62304;47.662;18.324;2022-10-14T19:03:26;106.78;;;52.30;;
73951;SDS011;62304;47.662;18.324;2022-10-14T19:06:31;86.87;;;41.30;;
73951;SDS011;62304;47.662;18.324;2022-10-14T19:09:36;84.05;;;41.58;;
73951;SDS011;62304;47.662;18.324;2022-10-14T19:12:39;82.80;;;39.30;;
73951;SDS011;62304;47.662;18.324;2022-10-14T19:15:43;86.30;;;41.25;;
73951;SDS011;62304;47.662;18.324;2022-10-14T19:18:52;82.20;;;38.90;;
73951;SDS011;62304;47.662;18.324;2022-10-14T19:21:56;82.20;;;39.75;;
73951;SDS011;62304;47.662;18.324;2022-10-14T19:25:01;68.05;;;34.67;;
73951;SDS011;62304;47.662;18.324;2022-10-14T19:28:05;72.80;;;35.37;;
73951;SDS011;62304;47.662;18.324;2022-10-14T19:31:09;69.78;;;34.30;;
73951;SDS011;62304;47.662;18.324;2022-10-14T19:34:17;64.30;;;34.17;;
73951;SDS011;62304;47.662;18.324;2022-10-14T19:37:20;65.30;;;33.42;;
73951;SDS011;62304;47.662;18.324;2022-10-14T19:40:23;66.60;;;33.60;;
73951;SDS011;62304;47.662;18.324;2022-10-14T19:43:28;70.13;;;34.37;;